createdAt,value
2023-07-18T00:01:59.976Z,1.73
2023-07-18T00:04:08.857Z,1.70
2023-07-18T00:06:19.542Z,1.77
2023-07-18T00:08:28.260Z,1.60
2023-07-18T00:10:36.885Z,1.70
2023-07-18T00:12:45.898Z,1.77
2023-07-18T00:14:55.134Z,1.60
2023-07-18T00:17:04.054Z,1.73
2023-07-18T00:19:13.653Z,1.60
2023-07-18T00:21:24.680Z,1.43
2023-07-18T00:23:33.296Z,1.90
2023-07-18T00:25:42.530Z,1.70
2023-07-18T00:27:53.871Z,1.47
2023-07-18T00:30:04.828Z,1.83
2023-07-18T00:32:13.673Z,1.60
2023-07-18T00:34:23.139Z,1.63
2023-07-18T00:36:33.902Z,1.70
2023-07-18T00:38:43.148Z,1.60
2023-07-18T00:40:52.107Z,1.80
2023-07-18T00:43:04.805Z,1.63
2023-07-18T00:45:12.473Z,1.57
2023-07-18T00:47:21.184Z,1.70
2023-07-18T00:49:34.662Z,1.77
2023-07-18T00:51:45.153Z,1.80
2023-07-18T00:53:54.437Z,1.43
2023-07-18T00:56:06.638Z,1.40
2023-07-18T00:58:15.535Z,1.40
2023-07-18T01:00:24.920Z,1.80
2023-07-18T01:02:34.530Z,1.73
2023-07-18T01:04:43.639Z,1.60
2023-07-18T01:06:54.318Z,1.73
2023-07-18T01:09:06.449Z,1.67
2023-07-18T01:11:15.930Z,1.60
2023-07-18T01:13:24.797Z,1.50
2023-07-18T01:15:34.429Z,1.83
2023-07-18T01:17:43.618Z,1.80
2023-07-18T01:19:52.446Z,1.43
2023-07-18T01:22:02.863Z,1.77
2023-07-18T01:24:11.769Z,1.63
2023-07-18T01:26:20.931Z,1.83
2023-07-18T01:28:29.523Z,1.70
2023-07-18T01:30:38.551Z,2.10
2023-07-18T01:32:50.130Z,1.83
2023-07-18T01:34:59.230Z,1.60
2023-07-18T01:37:09.313Z,1.70
2023-07-18T01:39:17.917Z,2.10
2023-07-18T01:41:27.347Z,1.73
2023-07-18T01:43:37.220Z,2.10
2023-07-18T01:45:45.882Z,1.87
2023-07-18T01:47:53.602Z,1.70
2023-07-18T01:50:04.835Z,1.70
2023-07-18T01:52:15.224Z,1.80
2023-07-18T01:54:24.073Z,1.90
2023-07-18T01:56:32.750Z,1.70
2023-07-18T01:58:41.527Z,1.70
2023-07-18T02:00:50.185Z,1.70
2023-07-18T02:02:59.692Z,1.80
2023-07-18T02:05:09.192Z,1.60
2023-07-18T02:07:19.285Z,1.90
2023-07-18T02:09:30.804Z,1.53
2023-07-18T02:11:39.591Z,1.70
2023-07-18T02:13:48.237Z,1.63
2023-07-18T02:15:57.161Z,1.70
2023-07-18T02:18:05.964Z,1.80
2023-07-18T02:20:15.375Z,2.00
2023-07-18T02:22:26.384Z,2.00
2023-07-18T02:24:35.892Z,1.60
2023-07-18T02:26:44.870Z,1.70
2023-07-18T02:28:55.457Z,1.83
2023-07-18T02:31:06.760Z,1.83
2023-07-18T02:33:18.654Z,1.97
2023-07-18T02:35:27.706Z,1.67
2023-07-18T02:37:38.009Z,1.53
2023-07-18T02:39:47.648Z,1.70
2023-07-18T02:41:56.380Z,1.87
2023-07-18T02:44:05.923Z,1.80
2023-07-18T02:46:14.787Z,1.67
2023-07-18T02:48:23.948Z,1.73
2023-07-18T02:50:32.502Z,1.87
2023-07-18T02:52:42.579Z,1.70
2023-07-18T02:54:51.732Z,1.90
2023-07-18T02:57:01.390Z,1.70
2023-07-18T02:59:12.142Z,1.83
2023-07-18T03:01:21.571Z,1.80
2023-07-18T03:03:31.548Z,1.70
2023-07-18T03:05:40.196Z,1.90
2023-07-18T03:07:50.937Z,1.70
2023-07-18T03:09:59.756Z,1.90
2023-07-18T03:12:08.804Z,1.67
2023-07-18T03:14:19.414Z,2.13
2023-07-18T03:16:28.228Z,1.60
2023-07-18T03:18:36.898Z,1.70
2023-07-18T03:20:45.964Z,1.80
2023-07-18T03:22:56.867Z,1.73
2023-07-18T03:25:08.528Z,1.90
2023-07-18T03:27:17.458Z,2.10
2023-07-18T03:29:25.979Z,1.77
2023-07-18T03:31:35.316Z,1.70
2023-07-18T03:33:44.194Z,2.10
2023-07-18T03:35:52.900Z,1.97
2023-07-18T03:38:03.057Z,1.90
2023-07-18T03:40:11.605Z,1.93
2023-07-18T03:42:20.347Z,2.00
2023-07-18T03:44:29.073Z,2.07
2023-07-18T03:46:37.662Z,2.00
2023-07-18T03:48:46.707Z,2.03
2023-07-18T03:50:56.010Z,2.20
2023-07-18T03:53:06.886Z,1.97
2023-07-18T03:55:15.789Z,2.03
2023-07-18T03:57:26.337Z,2.20
2023-07-18T03:59:35.971Z,2.10
2023-07-18T04:01:44.632Z,2.70
2023-07-18T04:03:53.658Z,1.97
2023-07-18T04:06:02.956Z,2.03
2023-07-18T04:08:13.312Z,2.10
2023-07-18T04:10:21.931Z,2.13
2023-07-18T04:12:31.672Z,2.10
2023-07-18T04:14:41.105Z,2.13
2023-07-18T04:16:49.804Z,2.00
2023-07-18T04:18:58.712Z,2.20
2023-07-18T04:21:08.173Z,2.30
2023-07-18T04:23:20.927Z,2.13
2023-07-18T04:25:36.426Z,1.93
2023-07-18T04:27:45.990Z,2.33
2023-07-18T04:29:55.139Z,1.93
2023-07-18T04:32:03.885Z,2.10
2023-07-18T04:34:12.806Z,2.50
2023-07-18T04:36:21.904Z,2.27
2023-07-18T04:38:31.871Z,2.73
2023-07-18T04:40:40.723Z,2.30
2023-07-18T04:42:52.727Z,2.27
2023-07-18T04:45:01.960Z,2.73
2023-07-18T04:47:10.914Z,2.80
2023-07-18T04:49:23.020Z,2.20
2023-07-18T04:51:31.982Z,2.20
2023-07-18T04:53:42.414Z,2.10
2023-07-18T04:55:54.169Z,2.40
2023-07-18T04:58:05.196Z,2.37
2023-07-18T05:00:19.026Z,2.53
2023-07-18T05:02:40.172Z,2.30
2023-07-18T05:04:49.337Z,2.20
2023-07-18T05:06:57.977Z,2.93
2023-07-18T05:09:09.582Z,2.47
2023-07-18T05:11:18.478Z,2.60
2023-07-18T05:13:27.768Z,2.80
2023-07-18T05:15:49.537Z,2.70
2023-07-18T05:17:58.210Z,2.47
2023-07-18T05:20:07.374Z,2.33
2023-07-18T05:22:18.829Z,2.50
2023-07-18T05:24:29.257Z,2.53
2023-07-18T05:26:38.039Z,2.60
2023-07-18T05:28:47.060Z,3.13
2023-07-18T05:30:55.926Z,2.60
2023-07-18T05:33:05.520Z,2.43
2023-07-18T05:35:17.363Z,2.30
2023-07-18T05:37:27.269Z,2.80
2023-07-18T05:39:39.821Z,2.77
2023-07-18T05:41:48.966Z,2.80
2023-07-18T05:43:57.921Z,2.57
2023-07-18T05:46:07.030Z,2.57
2023-07-18T05:48:15.733Z,2.80
2023-07-18T05:50:24.432Z,2.90
2023-07-18T05:52:34.217Z,2.80
2023-07-18T05:54:46.284Z,2.33
2023-07-18T05:56:55.082Z,2.63
2023-07-18T05:59:06.659Z,2.60
2023-07-18T06:01:15.981Z,2.90
2023-07-18T06:03:25.577Z,2.50
2023-07-18T06:05:34.506Z,2.80
2023-07-18T06:07:43.183Z,2.93
2023-07-18T06:09:53.672Z,3.00
2023-07-18T06:12:02.970Z,2.10
2023-07-18T06:14:11.716Z,2.50
2023-07-18T06:16:20.883Z,2.53
2023-07-18T06:18:30.104Z,2.50
2023-07-18T06:20:45.764Z,2.63
2023-07-18T06:22:56.011Z,2.30
2023-07-18T06:25:06.320Z,2.10
2023-07-18T06:27:18.010Z,2.50
2023-07-18T06:29:27.117Z,2.20
2023-07-18T06:31:36.796Z,2.17
2023-07-18T06:33:45.957Z,2.07
2023-07-18T06:35:54.969Z,2.10
2023-07-18T06:38:04.095Z,2.40
2023-07-18T06:40:15.544Z,2.07
2023-07-18T06:42:23.204Z,1.93
2023-07-18T06:44:31.874Z,2.27
2023-07-18T06:46:43.536Z,2.10
2023-07-18T06:48:54.043Z,1.97
2023-07-18T06:51:07.790Z,1.90
2023-07-18T06:53:16.821Z,2.17
2023-07-18T06:55:27.346Z,2.17
2023-07-18T06:57:36.193Z,2.13
2023-07-18T06:59:44.885Z,2.00
2023-07-18T07:01:53.908Z,1.97
2023-07-18T07:04:02.764Z,1.83
2023-07-18T07:06:11.723Z,2.10
2023-07-18T07:08:22.560Z,1.93
2023-07-18T07:10:32.545Z,1.80
2023-07-18T07:12:41.332Z,2.03
2023-07-18T07:14:50.044Z,2.00
2023-07-18T07:17:00.769Z,1.97
2023-07-18T07:19:09.830Z,2.07
2023-07-18T07:21:19.309Z,2.17
2023-07-18T07:23:29.790Z,2.03
2023-07-18T07:25:51.439Z,2.27
2023-07-18T07:28:00.656Z,1.70
2023-07-18T07:30:08.875Z,2.50
2023-07-18T07:32:17.759Z,2.40
2023-07-18T07:34:26.816Z,2.03
2023-07-18T07:36:38.742Z,2.27
2023-07-18T07:38:48.086Z,1.97
2023-07-18T07:40:58.177Z,2.17
2023-07-18T07:43:06.765Z,2.03
2023-07-18T07:45:16.053Z,2.40
2023-07-18T07:47:25.109Z,2.43
2023-07-18T07:49:33.948Z,2.00
2023-07-18T07:51:43.548Z,2.03
2023-07-18T07:53:52.486Z,2.13
2023-07-18T07:56:02.618Z,2.07
2023-07-18T07:58:11.317Z,1.87
2023-07-18T08:00:21.323Z,2.07
2023-07-18T08:02:30.358Z,2.17
2023-07-18T08:04:39.551Z,2.13
2023-07-18T08:06:48.332Z,2.23
2023-07-18T08:08:56.931Z,2.50
2023-07-18T08:11:06.825Z,2.53
2023-07-18T08:13:18.391Z,2.60
2023-07-18T08:15:29.832Z,2.53
2023-07-18T08:17:38.552Z,2.40
2023-07-18T08:19:50.103Z,2.73
2023-07-18T08:21:58.774Z,2.47
2023-07-18T08:24:08.066Z,2.60
2023-07-18T08:26:18.556Z,2.70
2023-07-18T08:28:27.541Z,2.90
2023-07-18T08:30:36.210Z,2.97
2023-07-18T08:32:45.090Z,2.60
2023-07-18T08:34:54.001Z,3.10
2023-07-18T08:37:03.819Z,2.90
2023-07-18T08:39:12.993Z,2.63
2023-07-18T08:41:28.854Z,2.50
2023-07-18T08:43:38.601Z,2.40
2023-07-18T08:45:47.411Z,2.40
2023-07-18T08:47:57.769Z,2.50
2023-07-18T08:50:07.065Z,2.83
2023-07-18T08:52:16.190Z,2.40
2023-07-18T08:54:24.995Z,2.40
2023-07-18T08:56:35.458Z,2.73
2023-07-18T08:58:44.153Z,2.40
2023-07-18T09:00:52.837Z,2.07
2023-07-18T09:03:00.616Z,2.10
2023-07-18T09:05:29.652Z,2.60
2023-07-18T09:07:39.004Z,2.70
2023-07-18T09:09:49.259Z,2.40
2023-07-18T09:12:04.044Z,2.27
2023-07-18T09:14:24.427Z,2.40
2023-07-18T09:16:34.704Z,1.80
2023-07-18T09:18:48.052Z,1.90
2023-07-18T09:20:58.313Z,2.00
2023-07-18T09:23:07.700Z,1.70
2023-07-18T09:25:17.316Z,1.53
2023-07-18T09:27:28.220Z,1.30
2023-07-18T09:29:37.103Z,1.50
2023-07-18T09:31:48.382Z,1.70
2023-07-18T09:33:56.978Z,1.70
2023-07-18T09:36:07.153Z,1.57
2023-07-18T09:38:16.170Z,1.80
2023-07-18T09:40:24.767Z,1.50
2023-07-18T09:42:36.389Z,1.80
2023-07-18T09:46:59.797Z,1.70
2023-07-18T09:51:27.415Z,2.00
2023-07-18T09:53:36.690Z,1.80
2023-07-18T09:55:46.672Z,1.93
2023-07-18T09:57:57.902Z,2.10
2023-07-18T10:00:11.710Z,2.10
2023-07-18T10:02:20.778Z,1.80
2023-07-18T10:04:29.770Z,1.83
2023-07-18T10:06:38.673Z,2.10
2023-07-18T10:08:48.125Z,1.53
2023-07-18T10:11:05.569Z,1.47
2023-07-18T10:13:18.798Z,1.40
2023-07-18T10:15:28.188Z,1.80
2023-07-18T10:17:38.221Z,1.47
2023-07-18T10:19:47.872Z,1.50
2023-07-18T10:21:57.277Z,1.30
2023-07-18T10:24:25.517Z,2.23
2023-07-18T10:26:34.182Z,1.63
2023-07-18T10:28:45.849Z,1.60
2023-07-18T10:30:54.530Z,1.67
2023-07-18T10:33:04.744Z,1.40
2023-07-18T10:35:14.347Z,1.60
2023-07-18T10:37:27.916Z,1.70
2023-07-18T10:39:43.050Z,1.50
2023-07-18T10:41:51.700Z,1.40
2023-07-18T10:44:01.705Z,1.40
2023-07-18T10:46:15.461Z,1.73
2023-07-18T10:48:24.684Z,1.60
2023-07-18T10:50:35.170Z,1.40
2023-07-18T10:52:45.720Z,1.47
2023-07-18T10:54:55.775Z,1.47
2023-07-18T10:57:07.535Z,1.50
2023-07-18T10:59:17.615Z,1.37
2023-07-18T11:01:28.956Z,1.60
2023-07-18T11:03:38.986Z,1.40
2023-07-18T11:05:49.401Z,1.73
2023-07-18T11:08:10.231Z,1.47
2023-07-18T11:10:19.263Z,1.60
2023-07-18T11:12:28.217Z,1.80
2023-07-18T11:14:44.384Z,1.47
2023-07-18T11:16:53.989Z,1.60
2023-07-18T11:19:02.939Z,1.60
2023-07-18T11:21:12.037Z,1.83
2023-07-18T11:23:21.532Z,1.67
2023-07-18T11:25:30.363Z,1.63
2023-07-18T11:27:39.511Z,1.53
2023-07-18T11:30:07.544Z,1.53
2023-07-18T11:32:18.958Z,1.80
2023-07-18T11:34:28.020Z,1.70
2023-07-18T11:36:38.120Z,1.50
2023-07-18T11:38:47.006Z,1.67
2023-07-18T11:40:55.920Z,1.83
2023-07-18T11:43:05.304Z,1.57
2023-07-18T11:45:14.333Z,1.67
2023-07-18T11:47:25.030Z,1.67
2023-07-18T11:49:37.466Z,2.33
2023-07-18T11:51:46.666Z,2.07
2023-07-18T11:53:55.520Z,1.60
2023-07-18T11:56:04.317Z,1.93
2023-07-18T11:58:13.005Z,1.83
2023-07-18T12:00:21.849Z,1.60
2023-07-18T12:02:32.447Z,1.53
2023-07-18T12:04:41.244Z,1.50
2023-07-18T12:06:51.240Z,1.70
2023-07-18T12:08:59.853Z,1.70
2023-07-18T12:11:10.687Z,1.60
2023-07-18T12:13:20.227Z,1.67
2023-07-18T12:15:29.070Z,2.10
2023-07-18T12:17:40.790Z,2.20
2023-07-18T12:19:50.105Z,1.67
2023-07-18T12:21:58.956Z,1.50
2023-07-18T12:24:08.484Z,1.80
2023-07-18T12:26:17.213Z,1.90
2023-07-18T12:28:26.204Z,1.90
2023-07-18T12:30:37.022Z,2.40
2023-07-18T12:32:47.303Z,2.10
2023-07-18T12:34:56.298Z,2.20
2023-07-18T12:37:06.026Z,2.00
2023-07-18T12:39:14.826Z,2.00
2023-07-18T12:41:23.882Z,2.03
2023-07-18T12:43:32.922Z,1.97
2023-07-18T12:45:41.742Z,1.70
2023-07-18T12:47:51.902Z,2.00
2023-07-18T12:50:00.691Z,1.97
2023-07-18T12:52:09.839Z,2.27
2023-07-18T12:54:18.551Z,1.83
2023-07-18T12:56:27.588Z,1.93
2023-07-18T12:58:36.834Z,2.00
2023-07-18T13:00:45.637Z,2.00
2023-07-18T13:02:57.072Z,2.07
2023-07-18T13:05:06.140Z,1.50
2023-07-18T13:07:15.156Z,1.60
2023-07-18T13:09:24.537Z,1.80
2023-07-18T13:11:33.331Z,1.60
2023-07-18T13:13:44.980Z,1.60
2023-07-18T13:15:53.736Z,1.60
2023-07-18T13:18:09.753Z,1.47
2023-07-18T13:20:22.569Z,1.50
2023-07-18T13:22:30.272Z,1.40
2023-07-18T13:24:39.359Z,1.80
2023-07-18T13:26:47.939Z,1.67
2023-07-18T13:28:56.893Z,1.80
2023-07-18T13:31:05.599Z,1.60
2023-07-18T13:33:16.232Z,1.53
2023-07-18T13:35:25.080Z,1.80
2023-07-18T13:37:33.757Z,1.67
2023-07-18T13:39:42.854Z,1.63
2023-07-18T13:41:51.400Z,1.60
2023-07-18T13:44:00.059Z,1.67
2023-07-18T13:46:08.749Z,1.77
2023-07-18T13:48:19.467Z,1.73
2023-07-18T13:50:31.342Z,1.80
2023-07-18T13:52:41.477Z,1.87
2023-07-18T13:54:50.478Z,1.50
2023-07-18T13:56:59.527Z,1.77
2023-07-18T13:59:08.529Z,1.80
2023-07-18T14:01:20.553Z,1.60
2023-07-18T14:03:35.991Z,1.53
2023-07-18T14:05:45.375Z,1.60
2023-07-18T14:07:54.320Z,1.83
2023-07-18T14:10:06.034Z,1.63
2023-07-18T14:12:14.830Z,1.40
2023-07-18T14:14:23.530Z,1.60
2023-07-18T14:16:32.663Z,1.50
2023-07-18T14:18:42.757Z,1.40
2023-07-18T14:20:54.515Z,1.63
2023-07-18T14:23:04.377Z,1.60
2023-07-18T14:25:12.049Z,1.47
2023-07-18T14:27:20.929Z,1.90
2023-07-18T14:29:30.016Z,1.50
2023-07-18T14:31:40.143Z,1.77
2023-07-18T14:34:03.302Z,1.50
2023-07-18T14:36:14.898Z,1.60
2023-07-18T14:38:23.850Z,1.67
2023-07-18T14:40:32.984Z,1.93
2023-07-18T14:42:41.883Z,2.00
2023-07-18T14:44:50.485Z,1.73
2023-07-18T14:46:59.422Z,1.50
2023-07-18T14:49:11.082Z,1.53
2023-07-18T14:51:20.247Z,1.60
2023-07-18T14:53:29.239Z,1.50
2023-07-18T14:55:39.280Z,1.60
2023-07-18T14:57:48.226Z,1.50
2023-07-18T14:59:57.199Z,1.50
2023-07-18T15:02:06.083Z,1.90
2023-07-18T15:04:16.591Z,1.90
2023-07-18T15:06:25.352Z,2.83
2023-07-18T15:08:34.288Z,2.43
2023-07-18T15:10:46.498Z,1.83
2023-07-18T15:12:55.591Z,1.60
2023-07-18T15:15:04.384Z,1.47
2023-07-18T15:17:13.609Z,2.10
2023-07-18T15:19:23.724Z,1.40
2023-07-18T15:21:32.515Z,1.47
2023-07-18T15:23:46.891Z,1.60
2023-07-18T15:25:55.863Z,1.90
2023-07-18T15:28:04.745Z,1.70
2023-07-18T15:30:14.251Z,1.90
2023-07-18T15:32:22.810Z,1.93
2023-07-18T15:34:33.907Z,2.53
2023-07-18T15:36:42.957Z,2.20
2023-07-18T15:38:51.671Z,2.57
2023-07-18T15:41:00.304Z,3.17
2023-07-18T15:43:08.948Z,2.93
2023-07-18T15:45:17.983Z,2.73
2023-07-18T15:47:26.996Z,2.90
2023-07-18T15:49:37.446Z,3.10
2023-07-18T15:51:46.624Z,2.80
2023-07-18T15:53:55.751Z,3.50
2023-07-18T15:56:04.649Z,3.20
2023-07-18T15:58:13.641Z,2.80
2023-07-18T16:00:22.643Z,2.33
2023-07-18T16:02:31.682Z,2.10
2023-07-18T16:04:42.911Z,1.80
2023-07-18T16:06:51.962Z,1.80
2023-07-18T16:09:00.674Z,2.00
2023-07-18T16:11:09.498Z,2.07
2023-07-18T16:13:18.528Z,1.93
2023-07-18T16:15:29.405Z,2.30
2023-07-18T16:17:38.233Z,1.90
2023-07-18T16:19:50.593Z,1.60
2023-07-18T16:22:03.565Z,2.10
2023-07-18T16:24:12.747Z,1.87
2023-07-18T16:26:22.800Z,1.90
2023-07-18T16:28:31.799Z,1.80
2023-07-18T16:30:41.904Z,1.60
2023-07-18T16:32:51.606Z,1.77
2023-07-18T16:35:02.634Z,1.40
2023-07-18T16:37:11.613Z,1.73
2023-07-18T16:39:32.226Z,1.60
2023-07-18T16:41:42.249Z,1.40
2023-07-18T16:43:50.936Z,1.53
2023-07-18T16:46:00.110Z,1.47
2023-07-18T16:48:08.847Z,1.80
2023-07-18T16:50:19.316Z,1.57
2023-07-18T16:52:28.185Z,1.27
2023-07-18T16:54:40.105Z,1.37
2023-07-18T16:56:48.977Z,1.47
2023-07-18T16:58:57.738Z,1.60
2023-07-18T17:01:08.697Z,1.70
2023-07-18T17:03:17.734Z,1.80
2023-07-18T17:05:28.779Z,1.80
2023-07-18T17:07:38.116Z,1.70
2023-07-18T17:09:46.876Z,1.73
2023-07-18T17:11:56.077Z,2.00
2023-07-18T17:14:08.189Z,2.13
2023-07-18T17:16:17.959Z,1.80
2023-07-18T17:18:27.345Z,2.17
2023-07-18T17:20:37.987Z,2.20
2023-07-18T17:22:46.885Z,2.10
2023-07-18T17:24:55.991Z,2.30
2023-07-18T17:27:04.801Z,2.67
2023-07-18T17:29:13.408Z,2.80
2023-07-18T17:31:22.064Z,2.63
2023-07-18T17:33:31.156Z,2.10
2023-07-18T17:35:41.406Z,2.07
2023-07-18T17:37:50.445Z,2.40
2023-07-18T17:40:01.881Z,2.60
2023-07-18T17:42:11.064Z,2.53
2023-07-18T17:44:19.992Z,3.00
2023-07-18T17:46:28.760Z,3.07
2023-07-18T17:48:38.776Z,3.43
2023-07-18T17:50:49.319Z,3.90
2023-07-18T17:52:58.467Z,3.40
2023-07-18T17:55:08.505Z,3.40
2023-07-18T17:57:17.179Z,3.63
2023-07-18T17:59:27.461Z,3.90
2023-07-18T18:01:36.219Z,4.00
2023-07-18T18:03:45.027Z,4.20
2023-07-18T18:05:59.072Z,3.63
2023-07-18T18:08:08.063Z,3.50
2023-07-18T18:10:16.862Z,3.20
2023-07-18T18:12:26.300Z,3.27
2023-07-18T18:14:34.005Z,3.33
2023-07-18T18:16:42.653Z,3.90
2023-07-18T18:18:51.260Z,3.40
2023-07-18T18:21:01.713Z,3.73
2023-07-18T18:23:17.472Z,3.53
2023-07-18T18:25:36.842Z,2.73
2023-07-18T18:27:45.621Z,2.73
2023-07-18T18:29:54.256Z,3.33
2023-07-18T18:32:04.629Z,2.70
2023-07-18T18:34:22.507Z,2.40
2023-07-18T18:36:34.327Z,2.40
2023-07-18T18:38:42.907Z,2.53
2023-07-18T18:40:51.944Z,2.67
2023-07-18T18:43:01.231Z,2.17
2023-07-18T18:45:11.125Z,2.33
2023-07-18T18:47:22.438Z,1.83
2023-07-18T18:49:31.683Z,1.80
2023-07-18T18:51:41.929Z,2.00
2023-07-18T18:53:51.052Z,1.70
2023-07-18T18:55:59.871Z,2.00
2023-07-18T18:58:09.016Z,1.70
2023-07-18T19:00:19.144Z,1.60
2023-07-18T19:02:28.152Z,1.60
2023-07-18T19:04:38.477Z,1.80
2023-07-18T19:06:49.068Z,1.63
2023-07-18T19:08:58.044Z,1.50
2023-07-18T19:11:09.282Z,1.30
2023-07-18T19:13:25.037Z,1.40
2023-07-18T19:15:34.398Z,1.30
2023-07-18T19:17:43.446Z,1.33
2023-07-18T19:19:52.751Z,1.53
2023-07-18T19:22:03.122Z,1.70
2023-07-18T19:24:11.931Z,1.60
2023-07-18T19:26:20.563Z,1.40
2023-07-18T19:28:29.156Z,1.30
2023-07-18T19:30:39.842Z,1.40
2023-07-18T19:32:49.290Z,1.30
2023-07-18T19:34:58.001Z,1.30
2023-07-18T19:37:09.324Z,1.20
2023-07-18T19:39:18.897Z,1.20
2023-07-18T19:41:27.577Z,1.20
2023-07-18T19:43:36.687Z,1.30
2023-07-18T19:45:45.453Z,1.20
2023-07-18T19:47:54.267Z,1.30
2023-07-18T19:50:03.577Z,1.33
2023-07-18T19:52:14.066Z,1.20
2023-07-18T19:54:24.957Z,1.20
2023-07-18T19:56:36.655Z,1.17
2023-07-18T19:58:45.596Z,1.40
2023-07-18T20:00:56.116Z,1.23
2023-07-18T20:03:05.377Z,1.20
2023-07-18T20:05:14.637Z,1.20
2023-07-18T20:07:25.030Z,1.33
2023-07-18T20:09:34.488Z,1.40
2023-07-18T20:11:43.683Z,1.47
2023-07-18T20:13:52.354Z,1.33
2023-07-18T20:16:01.188Z,1.27
2023-07-18T20:18:12.816Z,1.37
2023-07-18T20:20:22.266Z,1.37
2023-07-18T20:22:35.181Z,1.30
2023-07-18T20:24:44.144Z,1.20
2023-07-18T20:26:53.467Z,1.20
2023-07-18T20:29:02.420Z,1.43
2023-07-18T20:31:11.123Z,1.40
2023-07-18T20:33:20.760Z,1.23
2023-07-18T20:35:29.590Z,1.30
2023-07-18T20:37:40.752Z,1.30
2023-07-18T20:39:49.451Z,1.40
2023-07-18T20:41:58.562Z,1.37
2023-07-18T20:44:08.485Z,1.40
2023-07-18T20:46:18.089Z,1.20
2023-07-18T20:48:27.093Z,1.20
2023-07-18T20:50:36.161Z,1.17
2023-07-18T20:52:46.362Z,1.27
2023-07-18T20:54:55.175Z,1.10
2023-07-18T20:57:04.013Z,1.27
2023-07-18T20:59:12.844Z,1.57
2023-07-18T21:01:22.391Z,1.30
2023-07-18T21:03:33.271Z,1.30
2023-07-18T21:05:42.059Z,1.50
2023-07-18T21:07:52.797Z,1.30
2023-07-18T21:10:01.639Z,0.97
2023-07-18T21:12:11.628Z,1.20
2023-07-18T21:14:20.954Z,1.30
2023-07-18T21:16:32.986Z,1.10
2023-07-18T21:18:41.964Z,1.10
2023-07-18T21:20:50.814Z,1.20
2023-07-18T21:23:02.684Z,1.10
2023-07-18T21:25:11.796Z,1.23
2023-07-18T21:27:20.945Z,1.00
2023-07-18T21:29:29.953Z,1.07
2023-07-18T21:31:38.581Z,1.07
2023-07-18T21:33:47.598Z,1.10
2023-07-18T21:35:57.389Z,1.23
2023-07-18T21:38:08.271Z,1.10
2023-07-18T21:40:19.377Z,1.13
2023-07-18T21:42:30.028Z,1.17
2023-07-18T21:44:39.148Z,1.20
2023-07-18T21:46:47.940Z,1.13
2023-07-18T21:48:59.586Z,1.53
2023-07-18T21:51:08.608Z,1.13
2023-07-18T21:53:19.240Z,1.00
2023-07-18T21:55:27.992Z,1.53
2023-07-18T21:57:36.610Z,1.60
2023-07-18T21:59:44.262Z,1.07
2023-07-18T22:01:52.957Z,1.00
2023-07-18T22:04:01.626Z,0.90
2023-07-18T22:06:10.499Z,1.23
2023-07-18T22:08:20.726Z,1.10
2023-07-18T22:10:29.660Z,1.20
2023-07-18T22:12:38.629Z,1.20
2023-07-18T22:14:47.611Z,1.03
2023-07-18T22:16:56.316Z,1.10
2023-07-18T22:19:07.212Z,1.07
2023-07-18T22:21:16.515Z,1.27
2023-07-18T22:23:27.115Z,1.30
2023-07-18T22:25:36.113Z,1.10
2023-07-18T22:27:44.774Z,1.27
2023-07-18T22:29:53.846Z,1.10
2023-07-18T22:32:02.833Z,1.20
2023-07-18T22:34:23.579Z,1.53
2023-07-18T22:36:32.628Z,1.20
2023-07-18T22:38:43.022Z,1.10
2023-07-18T22:40:53.088Z,1.20
2023-07-18T22:43:02.020Z,0.97
2023-07-18T22:45:10.958Z,1.20
2023-07-18T22:47:19.856Z,1.27
2023-07-18T22:49:28.682Z,1.07
2023-07-18T22:51:37.195Z,1.17
2023-07-18T22:53:47.676Z,1.30
2023-07-18T22:55:56.586Z,0.90
2023-07-18T22:58:05.615Z,0.97
2023-07-18T23:00:14.854Z,1.20
2023-07-18T23:02:23.411Z,1.20
2023-07-18T23:04:32.308Z,1.40
2023-07-18T23:06:41.090Z,1.10
2023-07-18T23:08:51.137Z,1.13
2023-07-18T23:10:59.805Z,1.10
2023-07-18T23:13:08.918Z,1.00
2023-07-18T23:15:17.714Z,1.00
2023-07-18T23:17:26.811Z,1.10
2023-07-18T23:19:35.462Z,1.20
2023-07-18T23:21:43.995Z,1.20
2023-07-18T23:23:54.244Z,1.20
2023-07-18T23:26:02.972Z,1.00
2023-07-18T23:28:11.662Z,1.10
2023-07-18T23:30:20.406Z,1.10
2023-07-18T23:32:29.343Z,1.27
2023-07-18T23:34:38.269Z,1.10
2023-07-18T23:36:47.088Z,1.00
2023-07-18T23:38:57.320Z,1.10
2023-07-18T23:41:06.155Z,1.10
2023-07-18T23:43:16.597Z,1.30
2023-07-18T23:45:26.807Z,1.27
2023-07-18T23:47:35.852Z,1.47
2023-07-18T23:49:45.057Z,1.20
2023-07-18T23:51:53.912Z,1.20
2023-07-18T23:54:04.112Z,1.23
2023-07-18T23:56:12.810Z,0.90
2023-07-18T23:58:22.082Z,0.90
